Terminal Aerodrome Forecast
Issued by NWS Northern Indiana

Current Version | Previous Version | Text Only | Print | Product List | Glossary On
Versions: 1 2 3 4 5 6 7 8 9 10 11 12 13 14 15 16 17
000
FTUS43 KIWX 310100 AAA
TAFFWA
TAF AMD
KFWA 310135Z 3102/3124 00000KT P6SM SCT025
     FM310500 22005KT P6SM SCT200
     FM311500 22010KT P6SM BKN200=

USA.gov is the U.S. government's official web portal to all federal, state and local government web resources and services.